Hallock, Minnesota
Current Conditions -  °F | °C
As of 12:34 AM on Sunday 21 Dec 2014 (Local Time) from KHCO Reporting Station
Haze Haze  
Wind Chill: 32°   Ceiling: 6000
Heat Index: 32°   Visibility: 3mi
Dew Point: 30°   Wind: 0mph
Humidity: 93%   Direction: NA
Pressure: 29.81"   Gusts: NA
Location:  48.77°N, 96.95°W
Report Text: KHCO 210634Z AUTO 00000KT 3SM BR OVC060 00/M01 A2981 RMK AO2
Loading
Personal Weather Stations






























Interactive Weather Map New forecast layout! Learn more

10-Day Weather Forecast

Advertisements
Track Severe Weather on mobile